Página principal
METAR-TAF:

METAR-TAF

Aeroportos :

Qyzylorda, Cazaquistão

latitude: 44-51N, longitude: 065-30E, altura: 129 m

Observação actual do tempo

O boletim foi feito há 20 minutos, às 01:00 UTC
Vento 10 kt de su-sudoeste
Temperatura 1°C
Humidade 69%
Pressão 1025 hPa
Visibilidade 10 km ou mais
Poucas nuvensa uma altura de 4000 ft, Cumulonimbus.

METAR: UAOO 180100Z 21005MPS 9999 FEW040CB 01/M04 Q1025 NOSIG RMK QFE757/1009

Hora: 07:20 (01:20 UTC)

Previsão

O boletim foi feito há 2 horas e 20 minutos, às 23:00 UTC
Previsão válida de 18 às 00 UTC a 18 às 09 UTC
Vento 12 kt de sudoeste
Visibilidade 10 km ou mais
Nuvens fragmentadasa uma altura de 3000 ft, Cumulonimbus.
Nuvens fragmentadasa uma altura de 10000 ft
Temporariamente
de 18 às 00 UTC a 18 às 06 UTC
Vento 17 kt de sudoeste com rajadas de 27 kt
Visibilidade: 3000 m
Nuvens fragmentadasa uma altura de 1000 ft
neblina

TAF: UAOO 172300Z 1800/1809 22006MPS 9999 BKN030CB BKN100 TEMPO 1800/1806 22009G14MPS 3000 BR BKN010

Observações e previsões do tempo de mais de 4000 aeroportos (mensagens METAR e TAF).

As estações disponíveis são os pontos amarelos e vermelhos sobre o mapa.

Mova o rato sobre o mapa para ver o nome da estação.

Depois clique no ponto para visualizar as observações e previsões meteorológicas.

Para alterar o mapa : clique nos botões verdes com uma cruz preta para aumentar o zoom; no botão verde com uma pitada de zoom; ou nas setas verdes para mapas adjacentes.


METAR-TAF: